Time;durP1;ratioP1;P1;durP2;ratioP2;P2;SDS_P1;SDS_P2;PMS_P1;PMS_P2;Temp;Humidity;BMP_temperature;BMP_pressure;BME280_temperature;BME280_humidity;BME280_pressure;Samples;Min_cycle;Max_cycle;Signal;HPM_P1;HPM_P2
2022/08/13 00:00:10;;;;;;;7.00;2.25;;;19.20;99.90;;;;;;5003516;28;20099;-79
2022/08/13 00:02:42;;;;;;;4.57;1.80;;;19.20;99.90;;;;;;5006134;28;20052;-79
2022/08/13 00:05:24;;;;;;;;;;;19.30;99.90;;;;;;5013055;28;20108;-79
2022/08/13 00:07:50;;;;;;;3.90;1.70;;;19.10;99.90;;;;;;5014114;28;20454;-79
2022/08/13 00:10:23;;;;;;;3.05;2.03;;;19.10;99.90;;;;;;5008868;28;20073;-79
2022/08/13 00:13:03;;;;;;;7.63;2.13;;;19.00;99.90;;;;;;4999194;28;20041;-80
2022/08/13 00:15:33;;;;;;;4.63;2.40;;;18.90;99.90;;;;;;5007708;28;20559;-80
2022/08/13 00:18:03;;;;;;;6.13;2.05;;;18.70;99.90;;;;;;5010370;28;20065;-79
2022/08/13 00:20:45;;;;;;;4.20;2.10;;;18.70;99.90;;;;;;4983835;28;20053;-79
2022/08/13 00:23:15;;;;;;;10.32;2.22;;;18.60;99.90;;;;;;5006883;28;20049;-80
2022/08/13 00:25:47;;;;;;;7.22;2.33;;;18.50;99.90;;;;;;5007562;28;20504;-80
2022/08/13 00:28:18;;;;;;;7.18;2.50;;;18.60;99.90;;;;;;5012655;28;21671;-79
2022/08/13 00:30:46;;;;;;;6.78;1.95;;;18.40;99.90;;;;;;5010435;28;20525;-79
2022/08/13 00:33:15;;;;;;;6.78;2.33;;;18.30;99.90;;;;;;5007933;28;20045;-80
2022/08/13 00:35:47;;;;;;;9.23;2.10;;;18.20;99.90;;;;;;5007502;28;20511;-79
2022/08/13 00:38:17;;;;;;;7.47;1.98;;;18.20;99.90;;;;;;5012067;28;20524;-79
2022/08/13 00:40:50;;;;;;;3.45;2.05;;;18.00;99.90;;;;;;5008828;28;20420;-79
2022/08/13 00:43:28;;;;;;;3.38;2.17;;;17.90;99.90;;;;;;5009337;28;20041;-79
2022/08/13 00:45:54;;;;;;;4.75;2.22;;;17.80;99.90;;;;;;5010996;28;20041;-79
2022/08/13 00:51:10;;;;;;;5.53;2.95;;;17.70;99.90;;;;;;5009891;28;20448;-79
2022/08/13 00:53:40;;;;;;;4.03;2.30;;;17.60;99.90;;;;;;4998620;28;21720;-80
2022/08/13 00:56:09;;;;;;;8.63;2.78;;;17.50;99.90;;;;;;5004780;28;20060;-79
2022/08/13 00:58:38;;;;;;;6.78;2.47;;;17.40;99.90;;;;;;5010418;28;20777;-79
2022/08/13 01:01:05;;;;;;;6.30;2.10;;;17.60;99.90;;;;;;5014671;28;20044;-79
2022/08/13 01:03:35;;;;;;;6.18;2.30;;;17.30;99.90;;;;;;5014854;28;20391;-79
2022/08/13 01:06:06;;;;;;;6.55;2.47;;;17.30;99.90;;;;;;5009438;28;20053;-79
2022/08/13 01:08:49;;;;;;;9.98;2.42;;;17.20;99.90;;;;;;5006093;28;20053;-80
2022/08/13 01:11:15;;;;;;;5.35;2.00;;;17.00;99.90;;;;;;5012330;28;20045;-79
2022/08/13 01:13:51;;;;;;;6.90;2.38;;;16.90;99.90;;;;;;5013674;28;20123;-79
2022/08/13 01:16:18;;;;;;;8.00;2.78;;;17.00;99.90;;;;;;5014167;28;20068;-80
2022/08/13 01:18:48;;;;;;;2.70;2.50;;;16.80;99.90;;;;;;5010475;28;20052;-80
2022/08/13 01:21:30;;;;;;;11.63;2.42;;;16.70;99.90;;;;;;4995936;28;20049;-79
2022/08/13 01:23:56;;;;;;;2.55;2.08;;;16.70;99.90;;;;;;5011601;28;20508;-79
2022/08/13 01:26:23;;;;;;;7.47;2.67;;;16.70;99.90;;;;;;5016468;28;20897;-80
2022/08/13 01:28:51;;;;;;;6.80;2.25;;;16.70;99.90;;;;;;5008143;28;20073;-80
2022/08/13 01:31:24;;;;;;;7.50;2.42;;;16.60;99.90;;;;;;5012327;28;20609;-79
2022/08/13 01:33:59;;;;;;;6.15;2.70;;;16.50;99.90;;;;;;5010468;28;20077;-79
2022/08/13 01:36:26;;;;;;;4.40;2.65;;;16.50;99.90;;;;;;5014767;28;20067;-79
2022/08/13 01:39:05;;;;;;;10.70;2.83;;;16.40;99.90;;;;;;5011222;28;20119;-79
2022/08/13 01:41:34;;;;;;;6.10;2.50;;;16.40;99.90;;;;;;5015555;28;20144;-79
2022/08/13 01:44:04;;;;;;;6.28;2.33;;;16.30;99.90;;;;;;5010737;28;20049;-80
2022/08/13 01:53:12;;;;;;;4.60;2.53;;;16.20;99.90;;;;;;5015891;28;20088;-79
2022/08/13 01:55:58;;;;;;;4.38;2.17;;;16.20;99.90;;;;;;5009962;28;20052;-79
2022/08/13 01:58:25;;;;;;;4.32;2.35;;;16.20;99.90;;;;;;5015615;28;20041;-79
2022/08/13 02:00:54;;;;;;;5.13;2.33;;;16.30;99.90;;;;;;5011339;28;20052;-80
2022/08/13 02:03:20;;;;;;;3.40;2.58;;;16.30;99.90;;;;;;5013428;28;20140;-80
2022/08/13 02:06:00;;;;;;;4.43;2.15;;;16.30;99.90;;;;;;5013503;28;20053;-79
2022/08/13 02:08:26;;;;;;;5.50;2.28;;;16.40;99.90;;;;;;5015580;28;20129;-79
2022/08/13 02:10:54;;;;;;;6.50;1.80;;;16.40;99.90;;;;;;5011927;28;20700;-79
2022/08/13 02:13:32;;;;;;;3.08;1.73;;;16.40;99.90;;;;;;5008383;28;20041;-80
2022/08/13 02:15:57;;;;;;;6.57;2.38;;;16.50;99.90;;;;;;5011895;28;20042;-80
2022/08/13 02:18:26;;;;;;;1.98;1.77;;;16.40;99.90;;;;;;5009624;28;20065;-80
2022/08/13 02:20:59;;;;;;;5.13;2.17;;;16.40;99.90;;;;;;5011508;28;20528;-80
2022/08/13 02:23:28;;;;;;;5.22;2.22;;;16.50;99.90;;;;;;5014206;28;20083;-79
2022/08/13 02:25:55;;;;;;;2.13;1.70;;;16.40;99.90;;;;;;5009744;28;20057;-78
2022/08/13 02:28:21;;;;;;;2.47;1.77;;;16.40;99.90;;;;;;4993994;28;20049;-79
2022/08/13 02:30:49;;;;;;;4.93;1.98;;;16.40;99.90;;;;;;5009990;28;20061;-79
2022/08/13 02:33:15;;;;;;;5.30;1.90;;;16.40;99.90;;;;;;5009238;28;21655;-79
2022/08/13 02:35:47;;;;;;;5.57;2.20;;;16.70;99.90;;;;;;5009824;28;20037;-80
2022/08/13 02:38:14;;;;;;;4.30;2.35;;;16.40;99.90;;;;;;5011012;28;20109;-79
2022/08/13 02:43:37;;;;;;;3.20;2.05;;;16.30;99.90;;;;;;5013579;28;20054;-79
2022/08/13 02:46:03;;;;;;;4.45;1.70;;;16.30;99.90;;;;;;4996212;28;20755;-79
2022/08/13 02:48:29;;;;;;;2.88;2.17;;;16.30;99.90;;;;;;5011489;28;20049;-80
2022/08/13 02:50:56;;;;;;;8.32;2.70;;;16.30;99.90;;;;;;5008125;28;20099;-80
2022/08/13 02:53:23;;;;;;;6.63;2.30;;;16.30;99.90;;;;;;5020121;28;20044;-80
2022/08/13 02:55:49;;;;;;;5.07;1.65;;;16.40;99.90;;;;;;5012659;28;20041;-80
2022/08/13 02:58:16;;;;;;;5.38;2.17;;;16.30;99.90;;;;;;5012128;28;20527;-80
2022/08/13 03:00:47;;;;;;;2.25;1.70;;;16.30;99.90;;;;;;5007942;28;20559;-79
2022/08/13 03:03:14;;;;;;;6.40;2.00;;;16.30;99.90;;;;;;5015521;28;20073;-78
2022/08/13 03:05:41;;;;;;;3.30;1.92;;;16.30;99.90;;;;;;5012844;28;20107;-80
2022/08/13 03:08:07;;;;;;;4.43;1.60;;;16.30;99.90;;;;;;5014417;28;20060;-79
2022/08/13 03:10:33;;;;;;;6.38;1.88;;;16.30;99.90;;;;;;5024403;28;20104;-79
2022/08/13 03:13:04;;;;;;;4.18;2.03;;;16.30;99.90;;;;;;5009541;28;21204;-80
2022/08/13 03:15:30;;;;;;;3.92;2.22;;;16.30;99.90;;;;;;5010861;28;20049;-79
2022/08/13 03:17:56;;;;;;;4.82;2.03;;;16.20;99.90;;;;;;5014639;28;20050;-80
2022/08/13 03:20:21;;;;;;;2.22;1.92;;;16.10;99.90;;;;;;5006674;28;20052;-79
2022/08/13 03:22:47;;;;;;;6.47;2.10;;;16.10;99.90;;;;;;4993424;28;20041;-79
2022/08/13 03:25:14;;;;;;;6.65;1.52;;;16.10;99.90;;;;;;5012212;28;20049;-79
2022/08/13 03:27:39;;;;;;;2.47;1.70;;;16.10;99.90;;;;;;5008840;28;20396;-79
2022/08/13 03:30:06;;;;;;;2.70;1.63;;;16.00;99.90;;;;;;5007983;28;20060;-79
2022/08/13 03:32:42;;;;;;;3.88;1.83;;;16.10;99.90;;;;;;5007413;28;20044;-79
2022/08/13 03:35:08;;;;;;;;;;;16.00;99.90;;;;;;5011186;28;20048;-79
2022/08/13 03:37:35;;;;;;;4.45;1.80;;;16.00;99.90;;;;;;5013774;28;20541;-79
2022/08/13 03:40:02;;;;;;;3.53;1.70;;;15.90;99.90;;;;;;5007423;28;20135;-80
2022/08/13 03:42:27;;;;;;;3.42;1.58;;;15.90;99.90;;;;;;5008021;28;20045;-79
2022/08/13 03:44:54;;;;;;;4.63;1.92;;;16.00;99.90;;;;;;5008684;28;20033;-79
2022/08/13 03:47:19;;;;;;;4.25;2.00;;;15.90;99.90;;;;;;5026547;28;20064;-80
2022/08/13 03:49:46;;;;;;;3.17;1.70;;;16.10;99.90;;;;;;5008172;28;20046;-80
2022/08/13 03:52:16;;;;;;;3.28;1.77;;;15.80;99.90;;;;;;5001534;22;20133;-80
2022/08/13 03:55:32;;;;;;;2.78;1.80;;;15.80;99.90;;;;;;4977566;28;20046;-80
2022/08/13 03:58:29;;;;;;;;;;;15.80;99.90;;;;;;4970310;28;20043;-80
2022/08/13 04:04:29;;;;;;;10.40;1.98;;;16.20;99.90;;;;;;4972362;28;20049;-79
2022/08/13 04:06:57;;;;;;;2.22;1.73;;;15.80;99.90;;;;;;4954857;28;20201;-80
2022/08/13 04:09:23;;;;;;;1.80;1.60;;;15.80;99.90;;;;;;4970154;28;20051;-80
2022/08/13 04:11:54;;;;;;;7.63;1.88;;;15.80;99.90;;;;;;4973212;28;20796;-80
2022/08/13 04:14:20;;;;;;;3.22;1.95;;;15.80;99.90;;;;;;4956379;28;20421;-80
2022/08/13 04:16:45;;;;;;;3.28;2.47;;;15.80;99.90;;;;;;4969528;28;20042;-79
2022/08/13 04:19:14;;;;;;;8.90;1.83;;;15.80;99.90;;;;;;4969915;28;20046;-80
2022/08/13 04:21:40;;;;;;;10.70;2.15;;;15.80;99.90;;;;;;4968849;28;20089;-81
2022/08/13 04:24:18;;;;;;;3.70;1.80;;;15.70;99.90;;;;;;4972789;28;20125;-79
2022/08/13 04:26:44;;;;;;;6.30;2.08;;;15.80;99.90;;;;;;4966740;28;20046;-81
2022/08/13 04:29:11;;;;;;;1.98;1.83;;;15.90;99.90;;;;;;4954726;28;22045;-80
2022/08/13 04:31:37;;;;;;;5.07;1.88;;;15.80;99.90;;;;;;4968629;28;20038;-80
2022/08/13 04:34:09;;;;;;;4.30;1.98;;;15.80;99.90;;;;;;4969847;28;20054;-80
2022/08/13 04:36:35;;;;;;;3.75;1.92;;;15.90;99.90;;;;;;4957468;28;20168;-79
2022/08/13 04:39:00;;;;;;;4.93;1.80;;;15.90;99.90;;;;;;4954547;28;20039;-79
2022/08/13 04:41:26;;;;;;;3.65;1.63;;;16.00;99.90;;;;;;4968006;28;20050;-79
2022/08/13 04:43:52;;;;;;;3.92;1.92;;;16.00;99.90;;;;;;4971268;28;20096;-80
2022/08/13 04:46:17;;;;;;;4.05;1.50;;;16.10;99.90;;;;;;4968937;28;20050;-79
2022/08/13 04:48:43;;;;;;;8.02;1.50;;;16.20;99.90;;;;;;4969523;28;20563;-80
2022/08/13 04:51:35;;;;;;;6.78;1.73;;;16.30;99.90;;;;;;4972343;28;20047;-79
2022/08/13 04:54:22;;;;;;;5.20;1.63;;;16.30;99.90;;;;;;4970586;28;20047;-80
2022/08/13 04:56:48;;;;;;;8.18;1.30;;;16.40;99.90;;;;;;4937683;28;20053;-80
2022/08/13 04:59:16;;;;;;;5.68;1.60;;;16.50;99.90;;;;;;4957745;28;20057;-79
2022/08/13 05:01:42;;;;;;;6.88;1.60;;;16.50;99.90;;;;;;4969397;28;20061;-80
2022/08/13 05:04:08;;;;;;;7.65;1.48;;;16.60;99.90;;;;;;4968385;28;20055;-79
2022/08/13 05:06:33;;;;;;;3.28;1.60;;;16.80;99.90;;;;;;4974269;28;20042;-81
2022/08/13 05:09:01;;;;;;;2.15;1.85;;;17.00;99.90;;;;;;4970311;28;20050;-79
2022/08/13 05:11:27;;;;;;;4.00;1.35;;;17.10;99.90;;;;;;4970425;28;20053;-80
2022/08/13 05:13:52;;;;;;;4.85;1.50;;;17.40;99.90;;;;;;4967418;28;20043;-80
2022/08/13 05:16:21;;;;;;;9.38;1.63;;;17.50;99.90;;;;;;4969226;28;20050;-79
2022/08/13 05:18:54;;;;;;;3.35;1.80;;;18.20;99.90;;;;;;4969408;28;20046;-79
2022/08/13 05:21:37;;;;;;;6.05;1.48;;;19.20;99.90;;;;;;4971117;28;20084;-80
2022/08/13 05:24:21;;;;;;;;;;;;;;;;;;;;;
2022/08/13 05:27:32;;;;;;;6.35;1.90;;;23.00;99.90;;;;;;4975051;28;20517;-80
2022/08/13 05:30:02;;;;;;;5.93;1.48;;;24.70;99.90;;;;;;4972389;28;20043;-80
2022/08/13 05:32:43;;;;;;;4.82;1.25;;;25.80;99.60;;;;;;4972891;28;20050;-81
2022/08/13 05:35:44;;;;;;;13.13;1.75;;;27.00;97.30;;;;;;4970200;28;20070;-79
2022/08/13 05:38:50;;;;;;;4.20;1.48;;;28.20;95.50;;;;;;4969444;28;20495;-81
2022/08/13 05:41:38;;;;;;;6.68;1.85;;;28.90;93.40;;;;;;4972443;28;20507;-81
2022/08/13 05:44:13;;;;;;;3.95;1.08;;;29.60;92.30;;;;;;4976302;28;20050;-80
2022/08/13 05:46:39;;;;;;;3.63;1.20;;;30.40;91.20;;;;;;4976358;28;20053;-79
2022/08/13 05:49:18;;;;;;;;;;;;;;;;;;;;;
2022/08/13 05:51:44;;;;;;;5.22;1.20;;;31.00;86.90;;;;;;4974888;28;20078;-80
2022/08/13 05:54:11;;;;;;;4.20;1.55;;;31.20;86.70;;;;;;4978535;28;20229;-80
2022/08/13 05:56:54;;;;;;;5.10;1.70;;;31.70;84.00;;;;;;4975012;28;20049;-81
2022/08/13 06:21:10;;;;;;;3.90;1.58;;;33.60;71.70;;;;;;5013722;28;21064;-83
2022/08/13 06:28:01;;;;;;;4.88;1.60;;;34.10;69.90;;;;;;4925907;29;20051;-84
2022/08/13 06:30:39;;;;;;;5.18;1.45;;;34.30;70.20;;;;;;4896507;29;20111;-82
2022/08/13 07:27:14;;;;;;;4.43;0.88;;;28.50;77.20;;;;;;5786730;23;6909761;-77
2022/08/13 07:29:41;;;;;;;8.05;1.02;;;28.40;77.10;;;;;;6042444;23;20015;-77
2022/08/13 07:32:07;;;;;;;2.28;0.68;;;28.60;76.40;;;;;;6069103;23;20082;-79
2022/08/13 07:34:35;;;;;;;2.88;0.90;;;28.30;75.90;;;;;;6071846;23;20053;-78
2022/08/13 07:37:03;;;;;;;8.32;0.80;;;28.50;76.40;;;;;;6045754;23;20014;-78
2022/08/13 07:39:30;;;;;;;2.85;0.90;;;28.60;76.50;;;;;;6045223;23;20018;-77
2022/08/13 07:41:56;;;;;;;4.03;1.02;;;28.70;76.50;;;;;;6045221;23;20015;-78
2022/08/13 07:44:23;;;;;;;4.38;0.85;;;28.70;77.00;;;;;;6071381;23;20293;-78
2022/08/13 07:46:51;;;;;;;3.80;1.13;;;28.70;75.50;;;;;;6045830;23;20011;-78
2022/08/13 07:49:18;;;;;;;4.97;0.90;;;28.80;76.10;;;;;;6069757;23;20022;-79
2022/08/13 07:51:46;;;;;;;3.45;1.02;;;28.80;77.00;;;;;;6043445;23;20336;-78
2022/08/13 07:54:12;;;;;;;4.50;0.93;;;28.80;76.20;;;;;;6044832;23;20405;-79
2022/08/13 07:56:39;;;;;;;6.05;0.93;;;29.00;77.30;;;;;;6038597;23;20018;-81
2022/08/13 07:59:12;;;;;;;6.35;0.73;;;29.10;76.30;;;;;;6014057;23;20029;-78
2022/08/13 08:01:55;;;;;;;3.47;1.10;;;29.30;76.80;;;;;;6063799;23;20021;-79
2022/08/13 08:04:30;;;;;;;5.78;1.00;;;29.50;75.60;;;;;;6036123;23;20015;-78
2022/08/13 08:06:57;;;;;;;;;;;29.50;75.20;;;;;;6039047;23;20042;-83
2022/08/13 08:09:31;;;;;;;3.60;1.13;;;29.70;77.60;;;;;;6063750;23;19940;-80
2022/08/13 08:14:46;;;;;;;1.40;0.80;;;29.90;75.50;;;;;;6038384;23;19920;-79
2022/08/13 08:17:12;;;;;;;3.92;0.80;;;29.90;74.60;;;;;;6038742;23;20022;-78
2022/08/13 08:19:47;;;;;;;2.90;0.80;;;30.20;75.10;;;;;;6063578;23;20511;-81
2022/08/13 08:22:41;;;;;;;;;;;;;;;;;;;;;
2022/08/13 08:25:26;;;;;;;1.88;0.93;;;30.20;72.80;;;;;;6041357;23;20023;-83
2022/08/13 08:27:56;;;;;;;6.13;0.63;;;30.40;73.30;;;;;;6040167;23;20015;-81
2022/08/13 08:30:22;;;;;;;7.57;0.77;;;30.30;72.20;;;;;;6017746;23;20022;-80
2022/08/13 08:32:53;;;;;;;4.15;0.70;;;30.40;72.90;;;;;;6041907;23;20085;-82
2022/08/13 08:35:23;;;;;;;3.65;0.82;;;30.60;73.50;;;;;;6039872;23;20054;-81
2022/08/13 08:43:38;;;;;;;5.15;0.70;;;31.30;72.00;;;;;;6042206;23;20070;-81
2022/08/13 08:46:09;;;;;;;2.13;0.70;;;31.20;70.90;;;;;;6015742;23;20029;-81
2022/08/13 08:48:36;;;;;;;4.53;0.80;;;31.20;71.70;;;;;;6063520;23;20015;-80
2022/08/13 08:51:03;;;;;;;4.20;0.70;;;31.50;72.90;;;;;;6037596;23;20033;-81
2022/08/13 08:53:28;;;;;;;4.03;1.15;;;31.30;69.70;;;;;;6038527;23;20109;-80
2022/08/13 08:55:55;;;;;;;2.53;0.90;;;30.90;69.40;;;;;;6038717;23;20026;-80
2022/08/13 08:58:22;;;;;;;2.05;0.70;;;31.00;70.80;;;;;;6038186;23;20019;-81
2022/08/13 09:00:49;;;;;;;2.70;0.68;;;31.00;71.80;;;;;;6063247;23;20053;-85
2022/08/13 09:03:19;;;;;;;3.75;0.63;;;31.00;71.00;;;;;;6040167;23;20053;-80
2022/08/13 09:05:50;;;;;;;1.77;0.52;;;31.20;70.10;;;;;;6040934;23;20023;-83
2022/08/13 09:08:18;;;;;;;3.35;0.73;;;31.10;68.60;;;;;;6040732;23;20389;-80
2022/08/13 09:10:48;;;;;;;3.75;0.55;;;31.20;69.90;;;;;;6066685;23;20015;-80
2022/08/13 09:13:19;;;;;;;2.80;0.93;;;31.20;69.00;;;;;;6065588;23;20018;-79
2022/08/13 09:15:57;;;;;;;2.75;1.08;;;31.20;68.80;;;;;;6043232;23;20108;-83
2022/08/13 09:18:28;;;;;;;5.13;0.63;;;31.20;67.80;;;;;;6018895;23;20019;-80
2022/08/13 09:21:36;;;;;;;2.75;0.70;;;31.10;69.00;;;;;;6067086;23;20452;-80
2022/08/13 09:24:24;;;;;;;1.58;0.55;;;31.00;68.50;;;;;;6044175;23;20021;-81
2022/08/13 09:30:53;;;;;;;0.98;0.73;;;30.90;67.60;;;;;;6052886;23;20022;-80
2022/08/13 09:33:21;;;;;;;1.00;0.50;;;30.80;67.30;;;;;;6063487;23;20043;-80
2022/08/13 09:36:09;;;;;;;4.88;0.57;;;30.60;66.10;;;;;;6065494;23;20014;-80
2022/08/13 09:38:42;;;;;;;0.68;0.60;;;30.50;66.30;;;;;;6063468;23;20527;-80
2022/08/13 09:41:37;;;;;;;3.03;0.60;;;30.70;67.00;;;;;;6064576;23;20019;-84
2022/08/13 09:44:22;;;;;;;5.95;0.90;;;30.50;66.40;;;;;;6063264;23;20019;-80
2022/08/13 09:46:48;;;;;;;3.65;0.47;;;30.70;68.90;;;;;;6064806;23;20021;-80
2022/08/13 09:49:14;;;;;;;1.80;0.68;;;30.90;67.60;;;;;;6040206;23;20041;-80
2022/08/13 09:51:42;;;;;;;1.85;0.73;;;31.10;67.50;;;;;;6065045;23;20452;-80
2022/08/13 09:54:09;;;;;;;19.65;1.20;;;30.90;64.90;;;;;;6065500;23;20107;-80
2022/08/13 09:56:37;;;;;;;2.53;1.13;;;31.00;64.70;;;;;;6064145;23;20082;-81
2022/08/13 09:59:13;;;;;;;8.40;0.50;;;30.90;64.90;;;;;;6062966;23;20014;-82
2022/08/13 10:01:56;;;;;;;5.53;0.90;;;30.90;65.90;;;;;;6064856;23;20042;-82
2022/08/13 10:04:22;;;;;;;2.50;0.60;;;30.90;65.40;;;;;;6064441;23;20018;-80
2022/08/13 10:06:47;;;;;;;3.38;0.88;;;30.90;64.60;;;;;;6064417;23;20065;-79
2022/08/13 10:12:57;;;;;;;3.60;0.80;;;31.20;66.40;;;;;;6063632;23;20779;-83
2022/08/13 10:19:08;;;;;;;5.63;0.80;;;31.70;67.30;;;;;;6063875;23;20100;-82
2022/08/13 10:21:37;;;;;;;2.50;0.60;;;31.80;66.70;;;;;;6063138;23;20747;-81
2022/08/13 10:24:31;;;;;;;1.65;0.60;;;32.10;65.70;;;;;;6065150;23;20121;-82
2022/08/13 10:27:15;;;;;;;4.07;0.80;;;31.90;64.40;;;;;;6042549;23;20021;-80
2022/08/13 10:29:48;;;;;;;1.92;0.60;;;31.70;63.00;;;;;;6036979;23;20015;-82
2022/08/13 10:32:14;;;;;;;1.80;0.90;;;31.50;63.80;;;;;;6063223;23;20145;-80
2022/08/13 10:34:43;;;;;;;8.27;1.23;;;31.60;64.60;;;;;;6061799;23;20049;-83
2022/08/13 10:37:08;;;;;;;2.58;0.57;;;31.60;64.40;;;;;;6060574;23;20019;-81
2022/08/13 10:39:34;;;;;;;2.25;0.50;;;31.60;63.50;;;;;;6033276;23;20077;-83
2022/08/13 10:42:00;;;;;;;2.53;0.68;;;31.70;63.20;;;;;;6058246;23;20035;-81
2022/08/13 10:45:24;;;;;;;3.88;0.90;;;31.80;63.90;;;;;;6057503;23;20030;-81
2022/08/13 10:47:51;;;;;;;1.52;0.88;;;31.50;61.90;;;;;;6032797;23;20471;-82
2022/08/13 10:50:29;;;;;;;1.60;0.60;;;31.70;64.80;;;;;;6060077;23;20022;-82
2022/08/13 10:52:59;;;;;;;1.90;0.80;;;31.90;63.30;;;;;;6034651;23;20015;-86
2022/08/13 10:55:26;;;;;;;2.10;0.60;;;31.80;63.20;;;;;;6063164;23;20018;-80
2022/08/13 10:57:52;;;;;;;1.83;0.45;;;31.70;61.00;;;;;;6014830;23;20092;-80
2022/08/13 11:00:19;;;;;;;8.55;0.90;;;31.60;61.80;;;;;;6031695;23;20461;-80
2022/08/13 11:02:50;;;;;;;6.07;0.90;;;31.50;64.10;;;;;;6059477;23;20023;-82
2022/08/13 11:05:26;;;;;;;5.15;0.50;;;31.70;63.50;;;;;;6032025;23;20025;-81
2022/08/13 11:07:56;;;;;;;2.47;0.50;;;31.70;62.50;;;;;;6010871;23;20078;-80
2022/08/13 11:10:22;;;;;;;1.75;0.50;;;31.40;62.50;;;;;;6031648;23;20099;-81
2022/08/13 11:12:50;;;;;;;2.75;0.73;;;31.50;62.40;;;;;;6055521;23;20019;-80
2022/08/13 11:15:20;;;;;;;2.83;0.68;;;31.70;63.60;;;;;;6033249;23;20090;-81
2022/08/13 11:17:53;;;;;;;8.00;1.02;;;31.70;62.50;;;;;;6034442;23;20054;-83
2022/08/13 11:20:29;;;;;;;4.55;0.80;;;31.80;62.20;;;;;;5998703;23;20797;-78
2022/08/13 11:22:56;;;;;;;1.40;0.80;;;32.00;62.80;;;;;;6035932;23;20792;-80
2022/08/13 11:25:23;;;;;;;2.90;0.73;;;32.00;60.70;;;;;;6058364;23;20554;-79
2022/08/13 11:27:49;;;;;;;2.53;0.80;;;32.00;62.00;;;;;;6061513;23;20023;-79
2022/08/13 11:30:16;;;;;;;1.33;0.68;;;31.70;60.40;;;;;;6037714;23;20352;-79
2022/08/13 11:32:42;;;;;;;4.20;0.80;;;31.80;61.80;;;;;;6065819;23;20062;-78
2022/08/13 11:35:11;;;;;;;1.02;0.47;;;31.90;61.90;;;;;;6066659;23;20094;-79
2022/08/13 11:37:37;;;;;;;5.63;0.70;;;32.00;62.00;;;;;;6066536;23;20037;-81
2022/08/13 11:40:04;;;;;;;2.53;0.60;;;32.20;62.00;;;;;;6065493;23;20014;-79
2022/08/13 11:42:31;;;;;;;4.00;1.00;;;32.30;61.00;;;;;;6041144;23;20022;-78
2022/08/13 11:44:56;;;;;;;3.15;0.90;;;32.40;61.10;;;;;;6039639;23;20027;-77
2022/08/13 11:47:22;;;;;;;4.07;0.50;;;32.30;59.10;;;;;;6040085;23;20015;-81
2022/08/13 11:49:48;;;;;;;3.20;1.13;;;32.40;60.00;;;;;;6065610;23;20018;-80
2022/08/13 11:52:13;;;;;;;6.22;0.70;;;32.30;60.70;;;;;;6066396;23;20738;-79
2022/08/13 11:54:39;;;;;;;3.75;0.90;;;32.00;59.10;;;;;;6063572;23;20019;-82
2022/08/13 11:57:06;;;;;;;1.90;0.60;;;31.80;59.20;;;;;;6063378;23;20442;-80
2022/08/13 11:59:35;;;;;;;1.70;0.50;;;31.70;59.60;;;;;;6065616;23;20022;-79
2022/08/13 12:02:01;;;;;;;7.47;0.80;;;31.50;60.20;;;;;;6017729;23;20025;-80
2022/08/13 12:04:27;;;;;;;3.13;0.77;;;31.20;58.00;;;;;;6065751;23;20023;-82
2022/08/13 12:06:52;;;;;;;7.13;0.77;;;31.30;59.40;;;;;;6037465;23;20023;-79
2022/08/13 12:09:19;;;;;;;1.33;0.60;;;31.40;60.40;;;;;;6063201;23;20029;-78
2022/08/13 12:11:45;;;;;;;3.40;0.55;;;31.70;59.90;;;;;;6061821;23;20444;-80
2022/08/13 12:14:10;;;;;;;1.42;0.50;;;31.90;60.50;;;;;;6039867;23;20023;-79
2022/08/13 12:16:36;;;;;;;0.73;0.68;;;31.90;61.60;;;;;;6064534;23;20015;-79
2022/08/13 12:19:02;;;;;;;0.88;0.47;;;31.90;62.40;;;;;;6065831;23;20011;-79
2022/08/13 12:21:27;;;;;;;3.75;1.38;;;31.90;60.50;;;;;;6038669;23;20026;-80
2022/08/13 12:23:53;;;;;;;4.88;0.63;;;31.80;60.10;;;;;;6065037;23;20460;-80
2022/08/13 12:26:19;;;;;;;2.60;0.80;;;31.70;59.80;;;;;;6064488;23;20026;-79
2022/08/13 12:28:44;;;;;;;3.47;0.60;;;31.90;60.00;;;;;;6064035;23;20769;-80
2022/08/13 12:31:10;;;;;;;1.63;0.63;;;31.90;61.20;;;;;;6065198;23;20058;-79
2022/08/13 12:33:37;;;;;;;3.58;0.65;;;31.80;60.50;;;;;;6037613;23;20023;-84
2022/08/13 12:36:03;;;;;;;3.75;1.02;;;31.70;59.80;;;;;;6039832;23;20023;-80
2022/08/13 12:38:30;;;;;;;5.97;0.60;;;31.60;59.40;;;;;;6061038;23;20610;-81
2022/08/13 12:40:56;;;;;;;9.30;0.60;;;31.20;59.50;;;;;;6060474;23;20788;-80
2022/08/13 12:43:22;;;;;;;1.70;1.10;;;31.30;60.50;;;;;;6038416;23;20671;-79
2022/08/13 12:45:47;;;;;;;5.78;0.60;;;31.40;62.30;;;;;;6060610;23;20019;-79
2022/08/13 12:48:21;;;;;;;4.35;0.60;;;31.60;62.10;;;;;;6064838;23;20099;-82
2022/08/13 12:50:48;;;;;;;1.85;1.45;;;31.50;62.90;;;;;;6066981;23;20022;-80
2022/08/13 12:53:50;;;;;;;0.93;0.70;;;31.40;60.20;;;;;;6065713;23;20011;-81
2022/08/13 12:56:16;;;;;;;3.45;0.70;;;31.40;59.40;;;;;;6057552;23;20054;-79
2022/08/13 12:58:41;;;;;;;3.92;0.60;;;31.30;61.10;;;;;;6059043;23;20063;-82
2022/08/13 13:01:07;;;;;;;3.33;0.65;;;31.30;61.50;;;;;;6062794;23;20022;-78
2022/08/13 13:03:33;;;;;;;3.22;0.70;;;31.40;60.60;;;;;;6064469;23;20022;-79
2022/08/13 13:05:58;;;;;;;1.85;0.80;;;31.40;60.50;;;;;;6038128;23;20061;-79
2022/08/13 13:08:27;;;;;;;2.55;0.63;;;31.40;58.60;;;;;;6039134;23;20027;-82
2022/08/13 13:11:03;;;;;;;1.38;0.77;;;31.40;60.50;;;;;;6062941;23;20439;-79
2022/08/13 13:13:30;;;;;;;4.22;0.88;;;31.30;59.00;;;;;;6063335;23;20023;-79
2022/08/13 13:15:56;;;;;;;2.85;0.68;;;31.30;60.00;;;;;;6037418;23;20015;-79
2022/08/13 13:18:28;;;;;;;2.95;0.63;;;31.20;59.50;;;;;;6064406;23;20010;-78
2022/08/13 13:20:55;;;;;;;3.08;1.08;;;31.30;59.60;;;;;;6062523;23;20094;-81
2022/08/13 13:23:24;;;;;;;2.50;0.80;;;31.40;60.40;;;;;;6041893;23;20121;-78
2022/08/13 13:25:51;;;;;;;2.20;0.93;;;31.40;58.80;;;;;;6061952;23;20046;-81
2022/08/13 13:28:20;;;;;;;1.70;0.63;;;31.30;59.00;;;;;;6064401;23;20011;-78
2022/08/13 13:30:46;;;;;;;2.95;0.80;;;31.40;60.30;;;;;;6036871;23;20054;-80
2022/08/13 13:33:14;;;;;;;2.58;0.80;;;31.60;60.20;;;;;;6064101;23;20018;-79
2022/08/13 13:35:45;;;;;;;1.77;0.70;;;31.60;59.40;;;;;;6062388;23;20054;-84
2022/08/13 13:38:15;;;;;;;1.13;0.60;;;31.70;59.90;;;;;;6060295;23;20017;-82
2022/08/13 13:40:44;;;;;;;2.03;0.93;;;31.80;60.50;;;;;;6061701;23;20015;-81
2022/08/13 13:43:10;;;;;;;2.25;0.70;;;31.60;58.30;;;;;;6063139;23;20029;-83
2022/08/13 13:45:36;;;;;;;1.65;0.80;;;31.40;58.70;;;;;;6062382;23;20120;-81
2022/08/13 13:48:26;;;;;;;0.93;0.70;;;31.30;59.60;;;;;;6059941;23;20445;-80
2022/08/13 13:50:55;;;;;;;4.95;0.80;;;31.30;60.40;;;;;;6062155;23;20124;-80
2022/08/13 13:53:21;;;;;;;1.45;0.70;;;31.40;60.00;;;;;;6061508;23;20022;-82
2022/08/13 13:55:47;;;;;;;3.25;0.85;;;31.30;59.00;;;;;;6062427;23;20515;-78
2022/08/13 13:58:18;;;;;;;2.78;1.13;;;31.30;58.70;;;;;;6036516;23;20023;-79
2022/08/13 14:00:43;;;;;;;2.22;0.90;;;31.20;59.50;;;;;;6060700;23;20015;-78
2022/08/13 14:03:09;;;;;;;1.67;0.75;;;31.20;59.30;;;;;;6061020;23;20135;-80
2022/08/13 14:05:38;;;;;;;3.83;0.90;;;31.20;60.10;;;;;;6062697;23;20050;-79
2022/08/13 14:08:03;;;;;;;4.40;0.80;;;31.00;59.80;;;;;;6060531;23;20166;-80
2022/08/13 14:10:31;;;;;;;6.50;0.90;;;30.90;59.50;;;;;;6058447;23;20082;-80
2022/08/13 14:12:58;;;;;;;1.83;0.95;;;31.00;59.60;;;;;;6061416;23;20059;-79
2022/08/13 14:15:25;;;;;;;3.65;0.77;;;31.00;59.70;;;;;;6061178;23;20022;-79
2022/08/13 14:17:54;;;;;;;3.63;0.70;;;31.20;60.80;;;;;;6061794;23;20070;-78
2022/08/13 14:20:21;;;;;;;4.05;0.63;;;31.40;60.40;;;;;;6060628;23;20015;-80
2022/08/13 14:22:47;;;;;;;2.72;1.08;;;31.50;60.10;;;;;;6061673;23;20029;-80
2022/08/13 14:25:16;;;;;;;11.23;1.00;;;31.40;59.20;;;;;;6037392;23;20085;-82
2022/08/13 14:27:43;;;;;;;5.95;0.70;;;31.40;59.50;;;;;;6063283;23;20015;-80
2022/08/13 14:30:10;;;;;;;3.95;0.80;;;31.50;59.20;;;;;;6060790;23;20480;-77
2022/08/13 14:32:36;;;;;;;2.22;1.00;;;31.10;58.80;;;;;;6062028;23;20436;-80
2022/08/13 14:35:09;;;;;;;3.70;1.10;;;31.00;59.20;;;;;;6036986;23;20023;-80
2022/08/13 14:37:40;;;;;;;1.25;0.82;;;31.00;60.60;;;;;;6036950;23;20030;-79
2022/08/13 14:40:09;;;;;;;5.80;1.00;;;31.00;59.80;;;;;;6034472;23;20055;-79
2022/08/13 14:42:52;;;;;;;5.47;0.88;;;31.10;60.20;;;;;;6034679;23;20011;-79
2022/08/13 14:45:40;;;;;;;4.00;0.90;;;31.10;59.90;;;;;;6063276;23;20019;-79
2022/08/13 14:48:08;;;;;;;5.38;1.02;;;30.90;59.80;;;;;;6011523;23;20019;-81
2022/08/13 14:50:35;;;;;;;6.30;0.95;;;30.60;60.30;;;;;;6036093;23;20025;-78
2022/08/13 14:53:02;;;;;;;3.58;1.33;;;30.50;60.00;;;;;;6062784;23;20014;-78
2022/08/13 14:55:29;;;;;;;2.05;1.10;;;30.30;60.70;;;;;;6061875;23;20760;-78
2022/08/13 14:57:56;;;;;;;8.10;1.33;;;30.30;61.10;;;;;;6035296;23;20122;-78
2022/08/13 15:00:23;;;;;;;4.68;1.00;;;30.20;60.40;;;;;;6035743;23;20014;-77
2022/08/13 15:02:50;;;;;;;2.78;0.93;;;30.20;60.20;;;;;;6062090;23;20019;-77